Time;durP1;ratioP1;P1;durP2;ratioP2;P2;SDS_P1;SDS_P2;PMS_P1;PMS_P2;Temp;Humidity;BMP_temperature;BMP_pressure;BME280_temperature;BME280_humidity;BME280_pressure;Samples;Min_cycle;Max_cycle;Signal;HPM_P1;HPM_P2
2020/12/05 00:02:03;;;;;;;65.80;34.05;;;2.70;99.90;;;;;;5095762;28;20032;-80
2020/12/05 00:04:29;;;;;;;67.47;33.78;;;2.70;99.90;;;;;;5094846;28;20035;-80
2020/12/05 00:06:55;;;;;;;62.65;32.20;;;2.70;99.90;;;;;;5095750;28;20368;-80
2020/12/05 00:09:22;;;;;;;65.25;36.25;;;2.70;99.90;;;;;;5094507;28;20032;-79
2020/12/05 00:11:48;;;;;;;58.50;29.85;;;2.70;99.90;;;;;;5095411;28;20384;-79
2020/12/05 00:14:14;;;;;;;69.00;32.53;;;2.70;99.90;;;;;;5094797;28;20405;-79
2020/12/05 00:16:40;;;;;;;61.10;34.35;;;2.70;99.90;;;;;;5095154;28;20028;-80
2020/12/05 00:19:06;;;;;;;69.07;34.22;;;2.70;99.90;;;;;;5094255;28;20043;-79
2020/12/05 00:21:33;;;;;;;58.72;29.77;;;2.70;99.90;;;;;;5094294;28;20035;-79
2020/12/05 00:23:59;;;;;;;57.80;29.35;;;2.70;99.90;;;;;;5095157;28;20445;-78
2020/12/05 00:26:25;;;;;;;60.08;29.15;;;2.70;99.90;;;;;;5092862;28;20040;-78
2020/12/05 00:28:51;;;;;;;58.15;29.35;;;2.60;99.90;;;;;;5094870;28;20043;-78
2020/12/05 00:31:20;;;;;;;51.10;28.63;;;2.60;99.90;;;;;;5094356;28;20043;-79
2020/12/05 00:33:47;;;;;;;52.95;29.00;;;2.60;99.90;;;;;;5095114;28;20051;-79
2020/12/05 00:36:19;;;;;;;53.65;29.55;;;2.60;99.90;;;;;;5094370;28;20032;-78
2020/12/05 00:38:46;;;;;;;53.90;26.88;;;2.60;99.90;;;;;;5095129;28;20032;-79
2020/12/05 00:41:18;;;;;;;52.60;27.38;;;2.60;99.90;;;;;;5094154;28;20496;-78
2020/12/05 00:43:45;;;;;;;57.80;28.67;;;2.60;99.90;;;;;;5093346;28;20054;-78
2020/12/05 00:46:11;;;;;;;54.30;28.10;;;2.60;99.90;;;;;;5094497;28;20035;-79
2020/12/05 00:48:38;;;;;;;59.15;31.27;;;2.60;99.90;;;;;;5094388;28;20377;-79
2020/12/05 00:51:04;;;;;;;57.95;29.67;;;2.60;99.90;;;;;;5093326;28;20044;-79
2020/12/05 00:53:31;;;;;;;62.83;30.63;;;2.60;99.90;;;;;;5092276;28;20445;-79
2020/12/05 00:55:57;;;;;;;60.83;31.67;;;2.60;99.90;;;;;;5093048;28;20047;-79
2020/12/05 00:58:24;;;;;;;58.70;31.35;;;2.60;99.90;;;;;;5093869;28;20384;-79
2020/12/05 01:00:50;;;;;;;58.28;30.92;;;2.50;99.90;;;;;;5094333;28;20052;-81
2020/12/05 01:03:16;;;;;;;62.38;32.28;;;2.50;99.90;;;;;;5093844;28;20028;-81
2020/12/05 01:05:42;;;;;;;60.60;32.00;;;2.60;99.90;;;;;;5093367;28;20412;-80
2020/12/05 01:08:09;;;;;;;62.58;31.90;;;2.50;99.90;;;;;;5094320;28;20122;-80
2020/12/05 01:10:35;;;;;;;65.07;31.67;;;2.60;99.90;;;;;;5093580;28;20381;-81
2020/12/05 01:13:01;;;;;;;67.32;33.33;;;2.60;99.90;;;;;;5093251;28;20385;-80
2020/12/05 01:15:31;;;;;;;62.35;33.17;;;2.60;99.90;;;;;;5093296;28;20036;-80
2020/12/05 01:17:57;;;;;;;67.32;31.88;;;2.60;99.90;;;;;;5094280;28;20035;-80
2020/12/05 01:20:24;;;;;;;71.05;33.97;;;2.60;99.90;;;;;;5093649;28;20035;-81
2020/12/05 01:22:50;;;;;;;72.50;34.15;;;2.60;99.90;;;;;;5092840;28;20512;-81
2020/12/05 01:25:17;;;;;;;69.53;33.08;;;2.60;99.90;;;;;;5092582;28;20032;-81
2020/12/05 01:27:46;;;;;;;68.50;33.45;;;2.60;99.90;;;;;;5094225;28;20444;-81
2020/12/05 01:30:12;;;;;;;71.32;33.97;;;2.60;99.90;;;;;;5093614;28;20044;-81
2020/12/05 01:32:38;;;;;;;68.40;35.20;;;2.60;99.90;;;;;;5091701;28;20055;-81
2020/12/05 01:35:06;;;;;;;68.55;33.40;;;2.60;99.90;;;;;;5092603;28;20055;-82
2020/12/05 01:37:32;;;;;;;63.92;33.53;;;2.60;99.90;;;;;;5093165;28;20028;-81
2020/12/05 01:39:59;;;;;;;74.50;34.22;;;2.60;99.90;;;;;;5094375;28;20039;-82
2020/12/05 01:42:25;;;;;;;67.63;33.90;;;2.60;99.90;;;;;;5093053;28;20024;-83
2020/12/05 01:44:51;;;;;;;70.00;34.33;;;2.60;99.90;;;;;;5093723;28;20036;-84
2020/12/05 01:47:19;;;;;;;72.95;34.78;;;2.60;99.90;;;;;;5093216;28;20035;-82
2020/12/05 01:49:46;;;;;;;72.38;33.72;;;2.60;99.90;;;;;;5093406;28;20399;-82
2020/12/05 01:52:15;;;;;;;81.30;37.47;;;2.60;99.90;;;;;;5093804;28;20325;-81
2020/12/05 01:54:42;;;;;;;62.80;34.25;;;2.60;99.90;;;;;;5093897;28;20028;-80
2020/12/05 01:57:08;;;;;;;66.28;35.78;;;2.50;99.90;;;;;;5093406;28;20032;-81
2020/12/05 01:59:34;;;;;;;72.82;34.42;;;2.60;99.90;;;;;;5092564;28;20116;-80
2020/12/05 02:02:04;;;;;;;72.47;37.85;;;2.60;99.90;;;;;;5093775;28;20377;-80
2020/12/05 02:04:53;;;;;;;71.15;38.47;;;2.60;99.90;;;;;;5092644;28;20032;-80
2020/12/05 02:07:47;;;;;;;72.68;36.05;;;2.60;99.90;;;;;;5091057;28;20480;-80
2020/12/05 02:10:23;;;;;;;69.30;35.72;;;2.60;99.90;;;;;;5092992;28;20461;-81
2020/12/05 02:12:53;;;;;;;74.93;37.33;;;2.70;99.90;;;;;;5093611;28;20028;-80
2020/12/05 02:15:24;;;;;;;68.97;33.45;;;2.60;99.90;;;;;;5092635;28;20031;-79
2020/12/05 02:17:59;;;;;;;68.30;34.15;;;2.50;99.90;;;;;;5093552;28;20384;-80
2020/12/05 02:20:29;;;;;;;75.90;35.33;;;2.50;99.90;;;;;;5092624;28;20028;-79
2020/12/05 02:23:04;;;;;;;74.57;37.55;;;2.50;99.90;;;;;;5092802;28;20043;-81
2020/12/05 02:25:31;;;;;;;72.82;36.15;;;2.50;99.90;;;;;;5092547;28;20034;-80
2020/12/05 02:28:02;;;;;;;72.35;35.20;;;2.50;99.90;;;;;;5092565;28;20032;-80
2020/12/05 02:30:32;;;;;;;70.18;35.38;;;2.60;99.90;;;;;;5092038;28;20393;-80
2020/12/05 02:33:00;;;;;;;73.30;34.65;;;2.50;99.90;;;;;;5092733;28;20098;-82
2020/12/05 02:35:27;;;;;;;71.80;35.72;;;2.60;99.90;;;;;;5091985;28;20048;-80
2020/12/05 02:38:01;;;;;;;71.60;36.58;;;2.50;99.90;;;;;;5091142;28;20044;-80
2020/12/05 02:40:27;;;;;;;77.20;36.83;;;2.50;99.90;;;;;;5092229;28;20032;-79
2020/12/05 02:42:55;;;;;;;75.35;38.25;;;2.50;99.90;;;;;;5092761;28;20453;-80
2020/12/05 02:45:23;;;;;;;80.75;39.60;;;2.50;99.90;;;;;;5092359;28;20039;-80
2020/12/05 02:47:49;;;;;;;77.35;39.28;;;2.50;99.90;;;;;;5091235;28;20385;-80
2020/12/05 02:50:15;;;;;;;80.95;39.30;;;2.50;99.90;;;;;;5092770;28;20031;-81
2020/12/05 02:52:41;;;;;;;81.85;39.65;;;2.50;99.90;;;;;;5091815;28;20040;-81
2020/12/05 02:55:08;;;;;;;82.00;37.47;;;2.50;99.90;;;;;;5092608;28;20032;-80
2020/12/05 02:57:34;;;;;;;85.60;37.20;;;2.50;99.90;;;;;;5091674;28;20024;-80
2020/12/05 03:00:00;;;;;;;77.90;37.20;;;2.40;99.90;;;;;;5092617;28;20028;-80
2020/12/05 03:02:26;;;;;;;79.28;37.30;;;2.40;99.90;;;;;;5091733;28;20036;-81
2020/12/05 03:04:53;;;;;;;77.70;37.70;;;2.40;99.90;;;;;;5092286;28;20028;-80
2020/12/05 03:07:19;;;;;;;75.90;37.00;;;2.50;99.90;;;;;;5093803;28;20035;-83
2020/12/05 03:09:45;;;;;;;76.07;36.55;;;2.40;99.90;;;;;;5093182;28;20040;-81
2020/12/05 03:12:11;;;;;;;82.57;37.53;;;2.50;99.90;;;;;;5093161;28;20035;-81
2020/12/05 03:14:38;;;;;;;78.95;36.05;;;2.40;99.90;;;;;;5090270;28;20041;-80
2020/12/05 03:17:04;;;;;;;73.85;36.25;;;2.40;99.90;;;;;;5092324;28;20028;-82
2020/12/05 03:19:31;;;;;;;82.15;38.58;;;2.40;99.90;;;;;;5090521;28;20048;-80
2020/12/05 03:21:57;;;;;;;82.13;36.63;;;2.40;99.90;;;;;;5092433;28;20464;-81
2020/12/05 03:24:23;;;;;;;83.00;36.78;;;2.40;99.90;;;;;;5091468;28;20032;-81
2020/12/05 03:26:49;;;;;;;84.97;38.28;;;2.40;99.90;;;;;;5090846;28;20028;-81
2020/12/05 03:29:16;;;;;;;80.32;37.45;;;2.40;99.90;;;;;;5092070;28;20043;-81
2020/12/05 03:34:12;;;;;;;82.43;37.70;;;2.30;99.90;;;;;;5092718;28;20052;-84
2020/12/05 03:36:38;;;;;;;80.43;37.20;;;2.40;99.90;;;;;;5091373;28;20035;-84
2020/12/05 03:39:05;;;;;;;82.38;38.95;;;2.40;99.90;;;;;;5092185;28;20039;-83
2020/12/05 03:41:31;;;;;;;79.07;36.78;;;2.40;99.90;;;;;;5091798;28;20028;-83
2020/12/05 03:43:57;;;;;;;81.55;36.92;;;2.40;99.90;;;;;;5092136;28;20032;-83
2020/12/05 03:46:23;;;;;;;82.88;37.22;;;2.40;99.90;;;;;;5091279;28;20054;-81
2020/12/05 03:48:50;;;;;;;80.50;36.85;;;2.40;99.90;;;;;;5091739;28;20039;-83
2020/12/05 03:51:16;;;;;;;81.07;36.85;;;2.40;99.90;;;;;;5092268;28;20354;-82
2020/12/05 03:53:42;;;;;;;90.68;39.22;;;2.40;99.90;;;;;;5091181;28;20040;-83
2020/12/05 03:56:08;;;;;;;80.90;38.72;;;2.40;99.90;;;;;;5091763;28;20051;-82
2020/12/05 03:58:35;;;;;;;80.97;38.00;;;2.40;99.90;;;;;;5091554;28;20028;-82
2020/12/05 04:01:01;;;;;;;92.75;39.03;;;2.40;99.90;;;;;;5091991;28;20044;-82
2020/12/05 04:03:27;;;;;;;80.15;39.97;;;2.40;99.90;;;;;;5091461;28;20031;-81
2020/12/05 04:05:53;;;;;;;84.13;38.63;;;2.40;99.90;;;;;;5090865;28;20032;-82
2020/12/05 04:08:19;;;;;;;104.13;44.28;;;2.40;99.90;;;;;;5091903;28;20039;-81
2020/12/05 04:10:46;;;;;;;86.32;39.30;;;2.40;99.90;;;;;;5089941;28;20043;-81
2020/12/05 04:13:12;;;;;;;86.60;40.63;;;2.40;99.90;;;;;;5091679;28;20477;-81
2020/12/05 04:15:38;;;;;;;95.38;41.13;;;2.40;99.90;;;;;;5090908;28;20039;-81
2020/12/05 04:18:05;;;;;;;85.35;38.72;;;2.40;99.90;;;;;;5091849;28;20039;-81
2020/12/05 04:20:31;;;;;;;81.95;39.38;;;2.30;99.90;;;;;;5094925;28;20043;-80
2020/12/05 04:22:57;;;;;;;87.70;39.17;;;2.40;99.90;;;;;;5095279;28;20039;-80
2020/12/05 04:25:24;;;;;;;86.43;36.47;;;2.30;99.90;;;;;;5095483;28;20040;-81
2020/12/05 04:27:51;;;;;;;90.80;39.13;;;2.30;99.90;;;;;;5095182;28;20040;-80
2020/12/05 04:30:18;;;;;;;90.03;40.40;;;2.30;99.90;;;;;;5095541;28;20036;-81
2020/12/05 04:32:44;;;;;;;82.88;37.20;;;2.40;99.90;;;;;;5094537;28;20453;-81
2020/12/05 04:35:11;;;;;;;88.97;40.78;;;2.30;99.90;;;;;;5095089;28;20039;-81
2020/12/05 04:37:37;;;;;;;90.03;39.83;;;2.40;99.90;;;;;;5094419;28;20028;-81
2020/12/05 04:40:05;;;;;;;95.68;41.47;;;2.40;99.90;;;;;;5093227;28;20053;-81
2020/12/05 04:42:31;;;;;;;90.13;38.85;;;2.40;99.90;;;;;;5094197;28;20032;-81
2020/12/05 04:44:58;;;;;;;93.75;40.30;;;2.40;99.90;;;;;;5094780;28;20029;-81
2020/12/05 04:47:25;;;;;;;97.25;41.53;;;2.30;99.90;;;;;;5094763;28;20028;-81
2020/12/05 04:49:56;;;;;;;88.00;41.00;;;2.30;99.90;;;;;;5092896;28;20051;-81
2020/12/05 04:52:25;;;;;;;98.75;40.15;;;2.40;99.90;;;;;;5094878;28;20461;-81
2020/12/05 04:54:53;;;;;;;92.82;39.65;;;2.40;99.90;;;;;;5093970;28;20024;-81
2020/12/05 04:57:37;;;;;;;85.72;38.40;;;2.40;99.90;;;;;;5095023;28;20032;-81
2020/12/05 05:00:03;;;;;;;91.25;38.72;;;2.40;99.90;;;;;;5094802;28;20473;-81
2020/12/05 05:02:30;;;;;;;79.55;37.65;;;2.40;99.90;;;;;;5093799;28;20036;-81
2020/12/05 05:04:56;;;;;;;83.35;39.08;;;2.40;99.90;;;;;;5094970;28;20032;-80
2020/12/05 05:07:23;;;;;;;90.60;41.47;;;2.40;99.90;;;;;;5093337;28;20032;-81
2020/12/05 05:10:08;;;;;;;97.15;41.35;;;2.40;99.90;;;;;;5094059;28;20039;-81
2020/12/05 05:12:36;;;;;;;95.22;40.90;;;2.40;99.90;;;;;;5093950;28;20036;-81
2020/12/05 05:15:30;;;;;;;101.15;41.85;;;2.40;99.90;;;;;;5094483;28;20028;-81
2020/12/05 05:18:02;;;;;;;100.85;40.20;;;2.40;99.90;;;;;;5093485;28;20051;-81
2020/12/05 05:20:30;;;;;;;92.68;40.10;;;2.40;99.90;;;;;;5094153;28;20039;-80
2020/12/05 05:23:10;;;;;;;101.90;41.38;;;2.50;99.90;;;;;;5094221;28;20035;-80
2020/12/05 05:25:58;;;;;;;95.10;39.85;;;2.50;99.90;;;;;;5093716;28;20024;-81
2020/12/05 05:28:32;;;;;;;93.22;39.72;;;2.50;99.90;;;;;;5094689;28;20032;-80
2020/12/05 05:33:54;;;;;;;93.43;40.25;;;2.60;99.90;;;;;;5092247;28;20244;-80
2020/12/05 05:36:25;;;;;;;98.72;40.80;;;2.50;99.90;;;;;;5093819;28;20028;-80
2020/12/05 05:38:57;;;;;;;96.25;40.55;;;2.60;99.90;;;;;;5093555;28;20039;-81
2020/12/05 05:41:24;;;;;;;100.80;41.38;;;2.60;99.90;;;;;;5093533;28;20044;-81
2020/12/05 05:43:56;;;;;;;99.00;40.90;;;2.60;99.90;;;;;;5075072;28;20480;-81
2020/12/05 05:46:31;;;;;;;92.53;41.33;;;2.60;99.90;;;;;;5093797;28;20561;-81
2020/12/05 05:48:58;;;;;;;88.93;41.50;;;2.70;99.90;;;;;;5093455;28;20046;-81
2020/12/05 05:51:42;;;;;;;89.88;41.03;;;2.70;99.90;;;;;;5092225;28;20028;-80
2020/12/05 05:54:13;;;;;;;99.82;41.38;;;2.70;99.90;;;;;;5093831;28;20342;-81
2020/12/05 05:56:52;;;;;;;90.60;39.70;;;2.80;99.90;;;;;;5092557;28;20043;-81
2020/12/05 05:59:20;;;;;;;95.95;40.42;;;2.80;99.90;;;;;;5093102;28;20369;-80
2020/12/05 06:01:49;;;;;;;90.38;40.92;;;2.70;99.90;;;;;;5091698;28;20050;-81
2020/12/05 06:04:27;;;;;;;99.53;41.13;;;2.80;99.90;;;;;;5092422;28;20465;-81
2020/12/05 06:06:54;;;;;;;83.30;39.40;;;2.80;99.90;;;;;;5092608;28;20472;-81
2020/12/05 06:09:26;;;;;;;99.97;42.22;;;2.80;99.90;;;;;;5093219;28;20040;-81
2020/12/05 06:11:57;;;;;;;96.93;39.13;;;2.80;99.90;;;;;;5092372;28;20035;-81
2020/12/05 06:14:24;;;;;;;;;;;2.80;99.90;;;;;;5093688;28;20414;-81
2020/12/05 06:16:55;;;;;;;87.90;38.65;;;2.80;99.90;;;;;;5092556;28;19915;-80
2020/12/05 06:19:23;;;;;;;88.60;36.92;;;2.70;99.90;;;;;;5092923;28;20032;-80
2020/12/05 06:21:54;;;;;;;93.25;38.53;;;2.80;99.90;;;;;;5092441;28;20380;-80
2020/12/05 06:24:32;;;;;;;87.80;38.13;;;2.80;99.90;;;;;;5093119;28;20035;-79
2020/12/05 06:27:01;;;;;;;126.57;61.50;;;2.80;99.90;;;;;;5093232;28;20035;-80
2020/12/05 06:29:30;;;;;;;96.60;43.30;;;2.80;99.90;;;;;;5092653;28;20040;-80
2020/12/05 06:31:57;;;;;;;105.65;43.20;;;2.80;99.90;;;;;;5092268;28;20040;-80
2020/12/05 06:34:35;;;;;;;188.68;81.03;;;2.80;99.90;;;;;;5092957;28;20115;-80
2020/12/05 06:37:02;;;;;;;192.57;85.80;;;2.90;99.90;;;;;;5092840;28;20032;-80
2020/12/05 06:39:28;;;;;;;115.55;49.85;;;2.90;99.90;;;;;;5092669;28;20043;-80
2020/12/05 06:41:55;;;;;;;577.63;238.65;;;2.90;99.90;;;;;;5090426;28;20040;-80
2020/12/05 06:44:35;;;;;;;548.80;239.50;;;2.90;99.90;;;;;;5092720;28;20028;-79
2020/12/05 06:47:22;;;;;;;208.07;82.07;;;3.00;99.90;;;;;;5092693;28;20023;-79
2020/12/05 06:49:49;;;;;;;211.30;79.30;;;3.00;99.90;;;;;;5090194;28;20044;-79
2020/12/05 06:52:24;;;;;;;189.68;72.00;;;3.00;99.90;;;;;;5092549;28;20080;-80
2020/12/05 06:54:54;;;;;;;284.30;99.75;;;3.00;99.90;;;;;;5091907;28;20035;-80
2020/12/05 06:57:23;;;;;;;265.33;93.65;;;3.00;99.90;;;;;;5092459;28;20039;-79
2020/12/05 06:59:49;;;;;;;253.20;87.05;;;3.00;99.90;;;;;;5091629;28;20028;-80
2020/12/05 07:02:30;;;;;;;206.68;76.72;;;3.10;99.90;;;;;;5092540;28;20032;-80
2020/12/05 07:05:20;;;;;;;179.13;72.05;;;3.10;99.90;;;;;;5091503;28;20047;-80
2020/12/05 07:07:52;;;;;;;111.45;46.70;;;3.10;99.90;;;;;;5091472;28;20032;-81
2020/12/05 07:10:38;;;;;;;237.15;88.75;;;3.10;99.90;;;;;;5092263;28;20043;-80
2020/12/05 07:13:15;;;;;;;97.18;40.92;;;3.10;99.90;;;;;;5092336;28;20035;-80
2020/12/05 07:15:42;;;;;;;357.35;173.52;;;3.10;99.90;;;;;;5091887;28;20028;-80
2020/12/05 07:18:17;;;;;;;195.88;94.68;;;3.20;99.90;;;;;;5092647;28;20032;-80
2020/12/05 07:20:44;;;;;;;216.88;97.32;;;3.20;99.90;;;;;;5090406;28;20040;-80
2020/12/05 07:23:10;;;;;;;298.90;131.00;;;3.20;99.90;;;;;;5092055;28;20393;-80
2020/12/05 07:25:36;;;;;;;268.05;114.47;;;3.20;99.90;;;;;;5091642;28;20043;-80
2020/12/05 07:28:03;;;;;;;81.97;38.15;;;3.20;99.90;;;;;;5073740;28;20040;-80
2020/12/05 07:30:29;;;;;;;138.40;58.72;;;3.20;99.90;;;;;;5092477;28;20040;-81
2020/12/05 07:32:55;;;;;;;108.47;48.65;;;3.20;99.90;;;;;;5091230;28;20393;-84
2020/12/05 07:35:21;;;;;;;88.18;41.58;;;3.30;99.90;;;;;;5092265;28;20385;-77
2020/12/05 07:37:48;;;;;;;121.68;56.40;;;3.20;99.90;;;;;;5090289;28;20487;-77
2020/12/05 07:40:14;;;;;;;93.75;41.42;;;3.20;99.90;;;;;;5091531;28;20047;-77
2020/12/05 07:42:43;;;;;;;56.83;28.80;;;3.10;99.90;;;;;;5091093;28;20385;-77
2020/12/05 07:45:13;;;;;;;59.97;30.05;;;3.10;99.90;;;;;;5091323;28;20040;-82
2020/12/05 07:47:40;;;;;;;62.40;29.55;;;3.10;99.90;;;;;;5092080;28;20032;-81
2020/12/05 07:50:09;;;;;;;66.82;28.63;;;3.20;99.90;;;;;;5092990;28;20040;-82
2020/12/05 07:52:39;;;;;;;60.60;28.25;;;3.10;99.90;;;;;;5091153;28;20039;-82
2020/12/05 07:55:10;;;;;;;67.03;29.08;;;3.20;99.90;;;;;;5095396;28;20555;-83
2020/12/05 07:57:39;;;;;;;73.78;37.03;;;3.10;99.90;;;;;;5096316;28;20031;-82
2020/12/05 08:00:14;;;;;;;68.90;32.17;;;3.20;99.90;;;;;;5096854;28;20035;-82
2020/12/05 08:03:12;;;;;;;63.90;27.67;;;3.20;99.90;;;;;;5095903;28;20032;-82
2020/12/05 08:05:53;;;;;;;60.88;27.95;;;3.20;99.90;;;;;;5095582;28;20039;-81
2020/12/05 08:08:20;;;;;;;57.72;26.02;;;3.20;99.90;;;;;;5096223;28;20036;-82
2020/12/05 08:10:46;;;;;;;56.88;26.63;;;3.20;99.90;;;;;;5099375;28;20047;-82
2020/12/05 08:13:25;;;;;;;57.88;27.23;;;3.20;99.90;;;;;;5097275;28;20350;-81
2020/12/05 08:16:04;;;;;;;50.80;24.45;;;3.30;99.90;;;;;;5097928;28;20047;-83
2020/12/05 08:18:33;;;;;;;48.35;24.73;;;3.30;99.90;;;;;;5096246;28;20040;-80
2020/12/05 08:21:01;;;;;;;43.03;22.83;;;3.30;99.90;;;;;;5095552;28;20043;-80
2020/12/05 08:23:37;;;;;;;51.97;24.67;;;3.30;99.90;;;;;;5096563;28;20028;-80
2020/12/05 08:26:14;;;;;;;54.78;31.15;;;3.40;99.90;;;;;;5094213;28;20055;-80
2020/12/05 08:28:43;;;;;;;43.92;21.85;;;3.40;99.90;;;;;;5095428;28;20048;-79
2020/12/05 08:31:11;;;;;;;39.80;21.73;;;3.40;99.90;;;;;;5095663;28;20047;-80
2020/12/05 08:33:44;;;;;;;61.33;30.10;;;3.40;99.90;;;;;;5095276;28;20044;-80
2020/12/05 08:36:34;;;;;;;44.13;19.88;;;3.50;99.90;;;;;;5095224;28;20036;-78
2020/12/05 08:39:06;;;;;;;69.45;34.35;;;3.50;99.90;;;;;;5094095;28;20487;-79
2020/12/05 08:41:43;;;;;;;50.15;25.55;;;3.60;99.90;;;;;;5094984;28;20035;-79
2020/12/05 08:44:11;;;;;;;99.35;46.67;;;3.60;99.90;;;;;;5094740;28;20036;-80
2020/12/05 08:46:38;;;;;;;119.50;53.67;;;3.60;99.90;;;;;;5094591;28;20040;-80
2020/12/05 08:49:21;;;;;;;46.20;21.98;;;3.70;99.90;;;;;;5093762;28;20036;-80
2020/12/05 08:51:49;;;;;;;33.03;17.33;;;3.70;99.90;;;;;;5094678;28;20032;-80
2020/12/05 08:54:16;;;;;;;47.10;24.27;;;3.70;99.90;;;;;;5095146;28;20062;-80
2020/12/05 08:56:43;;;;;;;29.70;17.75;;;3.70;99.90;;;;;;5094791;28;20036;-79
2020/12/05 08:59:23;;;;;;;29.10;16.15;;;3.70;99.90;;;;;;5094963;28;20039;-79
2020/12/05 09:01:53;;;;;;;24.58;14.35;;;3.70;99.90;;;;;;5094703;28;20044;-80
2020/12/05 09:04:30;;;;;;;36.22;23.95;;;3.80;99.90;;;;;;5095181;28;20036;-80
2020/12/05 09:07:07;;;;;;;27.40;15.93;;;3.90;99.90;;;;;;5094235;28;20039;-78
2020/12/05 09:09:34;;;;;;;20.40;12.30;;;4.00;99.90;;;;;;5094823;28;20483;-80
2020/12/05 09:12:08;;;;;;;23.55;14.25;;;4.00;99.90;;;;;;5094634;28;20157;-80
2020/12/05 09:14:36;;;;;;;23.05;13.63;;;4.00;99.90;;;;;;5094670;28;20039;-79
2020/12/05 09:17:03;;;;;;;22.38;13.63;;;4.00;99.90;;;;;;5093920;28;20036;-79
2020/12/05 09:19:31;;;;;;;19.90;11.35;;;4.10;99.90;;;;;;5094627;28;20039;-79
2020/12/05 09:21:57;;;;;;;16.95;10.68;;;4.10;99.90;;;;;;5093751;28;20032;-77
2020/12/05 09:24:24;;;;;;;17.60;9.85;;;4.10;99.90;;;;;;5094578;28;20043;-85
2020/12/05 09:26:52;;;;;;;16.38;9.48;;;4.10;99.90;;;;;;5075600;28;20036;-80
2020/12/05 09:29:19;;;;;;;29.30;21.52;;;4.20;99.90;;;;;;5092819;28;20051;-79
2020/12/05 09:31:51;;;;;;;14.68;9.73;;;4.20;99.90;;;;;;5093264;28;20496;-79
2020/12/05 09:34:39;;;;;;;12.20;8.70;;;4.30;99.90;;;;;;5094133;28;20048;-80
2020/12/05 09:37:13;;;;;;;13.65;10.00;;;4.30;99.90;;;;;;5094239;28;20385;-80
2020/12/05 09:39:40;;;;;;;10.57;7.43;;;4.30;99.90;;;;;;5093204;28;20482;-86
2020/12/05 09:42:07;;;;;;;8.48;6.13;;;4.40;99.90;;;;;;5094653;28;20032;-86
2020/12/05 09:44:34;;;;;;;10.00;6.80;;;4.40;99.90;;;;;;5093349;28;20040;-84
2020/12/05 09:47:03;;;;;;;7.40;5.50;;;4.50;99.90;;;;;;5093000;28;20039;-87
2020/12/05 09:49:29;;;;;;;8.15;6.00;;;4.50;99.90;;;;;;5095766;28;20035;-86
2020/12/05 09:51:56;;;;;;;9.95;6.25;;;4.60;99.90;;;;;;5095485;28;20054;-87
2020/12/05 09:54:22;;;;;;;10.23;4.75;;;4.60;99.90;;;;;;5098331;28;20028;-87
2020/12/05 09:56:51;;;;;;;6.93;4.50;;;4.70;99.90;;;;;;5093881;28;20036;-86
2020/12/05 09:59:17;;;;;;;6.03;4.32;;;4.70;99.90;;;;;;5093802;28;20118;-87
2020/12/05 10:01:44;;;;;;;7.90;4.85;;;4.80;99.90;;;;;;5093552;28;20477;-85
2020/12/05 10:04:14;;;;;;;7.88;5.25;;;4.80;99.90;;;;;;5091864;28;20044;-81
2020/12/05 10:06:40;;;;;;;8.93;4.75;;;4.90;99.90;;;;;;5092820;28;20028;-82
2020/12/05 10:09:06;;;;;;;19.63;10.05;;;4.80;99.90;;;;;;5092231;28;20456;-81
2020/12/05 10:11:32;;;;;;;9.05;5.35;;;4.90;99.90;;;;;;5091920;28;20040;-84
2020/12/05 10:13:59;;;;;;;7.93;5.70;;;4.90;99.90;;;;;;5092484;28;20032;-83
2020/12/05 10:16:25;;;;;;;6.47;4.40;;;5.00;99.90;;;;;;5093076;28;20032;-83
2020/12/05 10:18:51;;;;;;;6.05;4.65;;;5.10;99.90;;;;;;5091214;28;20036;-86
2020/12/05 10:21:17;;;;;;;7.00;4.97;;;5.00;99.90;;;;;;5092987;28;20042;-80
2020/12/05 10:23:44;;;;;;;7.65;5.05;;;5.00;99.90;;;;;;5092976;28;20035;-78
2020/12/05 10:26:10;;;;;;;7.88;5.30;;;5.20;99.90;;;;;;5092879;28;20035;-80
2020/12/05 10:28:36;;;;;;;8.10;5.95;;;5.30;99.90;;;;;;5092727;28;20032;-80
2020/12/05 10:31:02;;;;;;;10.65;5.15;;;5.30;99.90;;;;;;5092246;28;20044;-80
2020/12/05 10:33:29;;;;;;;6.88;4.45;;;5.40;99.90;;;;;;5091314;28;20405;-81
2020/12/05 10:35:55;;;;;;;7.65;4.40;;;5.30;99.90;;;;;;5092065;28;20028;-77
2020/12/05 10:38:22;;;;;;;22.15;5.38;;;5.30;99.90;;;;;;5092915;28;20028;-78
2020/12/05 10:40:48;;;;;;;8.75;3.67;;;5.30;99.90;;;;;;5091997;28;20035;-77
2020/12/05 10:43:14;;;;;;;4.85;3.17;;;5.30;99.90;;;;;;5092504;28;20031;-80
2020/12/05 10:45:40;;;;;;;12.88;4.30;;;5.30;99.90;;;;;;5092343;28;20036;-79
2020/12/05 10:48:07;;;;;;;9.65;4.25;;;5.30;99.90;;;;;;5092427;28;20027;-79
2020/12/05 10:50:33;;;;;;;6.50;3.63;;;5.20;99.90;;;;;;5092616;28;20043;-80
2020/12/05 10:52:59;;;;;;;4.53;2.88;;;5.20;99.90;;;;;;5092201;28;20032;-80
2020/12/05 10:55:25;;;;;;;5.70;3.08;;;5.10;99.90;;;;;;5092732;28;20048;-81
2020/12/05 10:57:52;;;;;;;4.60;2.97;;;5.20;99.90;;;;;;5092079;28;20071;-80
2020/12/05 11:00:18;;;;;;;13.18;6.60;;;5.10;99.90;;;;;;5092726;28;20028;-78
2020/12/05 11:02:44;;;;;;;5.97;3.80;;;5.30;99.90;;;;;;5092361;28;20036;-78
2020/12/05 11:05:10;;;;;;;11.45;6.25;;;5.20;99.90;;;;;;5091756;28;20032;-82
2020/12/05 11:07:36;;;;;;;26.88;18.02;;;5.20;99.90;;;;;;5092526;28;20472;-77
2020/12/05 11:10:03;;;;;;;8.93;5.40;;;5.30;99.90;;;;;;5091473;28;20032;-78
2020/12/05 11:12:29;;;;;;;5.93;3.47;;;5.30;99.90;;;;;;5092110;28;20024;-77
2020/12/05 11:14:56;;;;;;;13.15;10.40;;;5.20;99.90;;;;;;5091711;28;20024;-78
2020/12/05 11:17:22;;;;;;;9.65;7.43;;;5.10;99.90;;;;;;5091704;28;20044;-81
2020/12/05 11:19:48;;;;;;;7.03;3.35;;;5.10;99.90;;;;;;5091577;28;20043;-81
2020/12/05 11:22:15;;;;;;;9.98;4.47;;;5.00;99.90;;;;;;5092873;28;20028;-84
2020/12/05 11:24:41;;;;;;;7.85;4.40;;;5.10;99.90;;;;;;5092639;28;20421;-81
2020/12/05 11:27:07;;;;;;;7.07;3.45;;;5.10;99.90;;;;;;5073236;28;20253;-77
2020/12/05 11:29:34;;;;;;;4.72;3.30;;;5.10;99.90;;;;;;5094994;28;20032;-76
2020/12/05 11:32:00;;;;;;;6.93;2.70;;;5.00;99.90;;;;;;5095253;28;20108;-77
2020/12/05 11:34:26;;;;;;;4.32;3.63;;;5.00;99.90;;;;;;5095827;28;20151;-80
2020/12/05 11:36:56;;;;;;;5.07;3.42;;;5.10;99.90;;;;;;5095344;28;20456;-75
2020/12/05 11:39:23;;;;;;;6.57;4.55;;;5.10;99.90;;;;;;5096326;28;20044;-78
2020/12/05 11:41:50;;;;;;;6.35;4.20;;;5.10;99.90;;;;;;5093845;28;20503;-79
2020/12/05 11:44:16;;;;;;;5.10;3.60;;;5.20;99.90;;;;;;5095561;28;20369;-78
2020/12/05 11:46:52;;;;;;;5.70;3.45;;;5.20;99.90;;;;;;5095127;28;20043;-78
2020/12/05 11:49:25;;;;;;;5.50;4.07;;;5.30;99.90;;;;;;5075623;28;20477;-78
2020/12/05 11:52:02;;;;;;;5.55;3.70;;;5.30;99.90;;;;;;5074794;28;20059;-78
2020/12/05 11:54:30;;;;;;;4.70;3.10;;;5.20;99.90;;;;;;5075335;28;20032;-78
2020/12/05 11:56:56;;;;;;;6.10;3.42;;;5.20;99.90;;;;;;5074555;28;20029;-78
2020/12/05 11:59:22;;;;;;;6.65;3.58;;;5.10;99.90;;;;;;5074966;28;20373;-79
2020/12/05 12:01:49;;;;;;;5.75;3.80;;;5.10;99.90;;;;;;5074627;28;20037;-79
2020/12/05 12:04:15;;;;;;;4.47;3.33;;;5.10;99.90;;;;;;5074900;28;20032;-79
2020/12/05 12:06:41;;;;;;;4.57;3.10;;;5.10;99.90;;;;;;5075259;28;20029;-77
2020/12/05 12:09:09;;;;;;;5.47;3.40;;;5.10;99.90;;;;;;5074387;28;20024;-78
2020/12/05 12:11:35;;;;;;;6.18;3.05;;;5.10;99.90;;;;;;5075052;28;20507;-78
2020/12/05 12:14:02;;;;;;;5.22;3.30;;;5.10;99.90;;;;;;5074198;28;20036;-78
2020/12/05 12:16:28;;;;;;;6.32;3.50;;;5.20;99.90;;;;;;5073717;28;20036;-78
2020/12/05 12:19:01;;;;;;;5.50;3.22;;;5.20;99.90;;;;;;5073914;28;20043;-80
2020/12/05 12:21:39;;;;;;;6.60;3.25;;;5.20;99.90;;;;;;5074479;28;20039;-78
2020/12/05 12:24:16;;;;;;;5.80;4.10;;;5.20;99.90;;;;;;5074255;28;20028;-78
2020/12/05 12:26:52;;;;;;;5.57;3.83;;;5.20;99.90;;;;;;5075015;28;20044;-78
2020/12/05 12:29:22;;;;;;;5.15;3.45;;;5.20;99.90;;;;;;5074696;28;20040;-78
2020/12/05 12:31:51;;;;;;;5.55;3.80;;;5.20;99.90;;;;;;5074473;28;20056;-77
2020/12/05 12:34:17;;;;;;;6.38;3.20;;;5.20;99.90;;;;;;5074340;28;20052;-77
2020/12/05 12:36:43;;;;;;;6.90;3.97;;;5.20;99.90;;;;;;5074324;28;20461;-77
2020/12/05 12:39:09;;;;;;;6.47;3.78;;;5.20;99.90;;;;;;5089227;28;20036;-78
2020/12/05 12:41:36;;;;;;;5.60;3.67;;;5.20;99.90;;;;;;5074572;28;20043;-78
2020/12/05 12:44:02;;;;;;;4.70;3.60;;;5.20;99.90;;;;;;5073464;28;20024;-77
2020/12/05 12:46:28;;;;;;;5.53;3.78;;;5.30;99.90;;;;;;5074436;28;20394;-78
2020/12/05 12:48:54;;;;;;;6.15;3.28;;;5.30;99.90;;;;;;5073938;28;20048;-78
2020/12/05 12:51:24;;;;;;;5.70;3.40;;;5.30;99.90;;;;;;5073184;28;20052;-78
2020/12/05 12:53:50;;;;;;;5.15;3.47;;;5.30;99.90;;;;;;5074566;28;20037;-77
2020/12/05 12:56:21;;;;;;;4.80;3.15;;;5.20;99.90;;;;;;5073625;28;20044;-77